sensor_id;sensor_type;location;lat;lon;timestamp;temperature;humidity
49052;DHT22;34866;48.670;18.260;2023-05-10T00:01:00;179.40;281.60
49052;DHT22;34866;48.670;18.260;2023-05-10T00:03:26;179.40;281.60
49052;DHT22;34866;48.670;18.260;2023-05-10T00:05:58;179.50;230.40
49052;DHT22;34866;48.670;18.260;2023-05-10T00:08:25;179.70;6502.40
49052;DHT22;34866;48.670;18.260;2023-05-10T00:11:05;205.00;6502.40
49052;DHT22;34866;48.670;18.260;2023-05-10T00:13:31;205.70;6502.40
49052;DHT22;34866;48.670;18.260;2023-05-10T00:15:57;230.40;6502.40
49052;DHT22;34866;48.670;18.260;2023-05-10T00:18:23;230.40;6502.40
49052;DHT22;34866;48.670;18.260;2023-05-10T00:20:49;230.40;6502.40
49052;DHT22;34866;48.670;18.260;2023-05-10T00:23:17;230.60;6502.40
49052;DHT22;34866;48.670;18.260;2023-05-10T00:25:43;230.60;6502.40
49052;DHT22;34866;48.670;18.260;2023-05-10T00:28:09;230.60;6502.40
49052;DHT22;34866;48.670;18.260;2023-05-10T00:30:34;230.50;6502.40
49052;DHT22;34866;48.670;18.260;2023-05-10T00:33:01;230.60;6502.40
49052;DHT22;34866;48.670;18.260;2023-05-10T00:35:53;230.70;6502.40
49052;DHT22;34866;48.670;18.260;2023-05-10T00:38:18;230.70;6502.40
49052;DHT22;34866;48.670;18.260;2023-05-10T00:40:57;230.70;6502.40
49052;DHT22;34866;48.670;18.260;2023-05-10T00:43:23;205.70;6502.40
49052;DHT22;34866;48.670;18.260;2023-05-10T00:45:48;205.40;6502.40
49052;DHT22;34866;48.670;18.260;2023-05-10T00:48:16;205.60;6502.40
49052;DHT22;34866;48.670;18.260;2023-05-10T00:50:42;205.10;6502.40
49052;DHT22;34866;48.670;18.260;2023-05-10T00:53:10;205.20;6502.40
49052;DHT22;34866;48.670;18.260;2023-05-10T00:55:42;205.30;6502.40
49052;DHT22;34866;48.670;18.260;2023-05-10T00:58:07;205.40;6502.40
49052;DHT22;34866;48.670;18.260;2023-05-10T01:00:34;205.40;6502.40
49052;DHT22;34866;48.670;18.260;2023-05-10T01:03:00;204.90;6502.40
49052;DHT22;34866;48.670;18.260;2023-05-10T01:05:26;205.00;6502.40
49052;DHT22;34866;48.670;18.260;2023-05-10T01:08:11;205.50;6502.40
49052;DHT22;34866;48.670;18.260;2023-05-10T01:10:57;230.40;6502.40
49052;DHT22;34866;48.670;18.260;2023-05-10T01:13:45;230.50;6502.40
49052;DHT22;34866;48.670;18.260;2023-05-10T01:16:40;230.50;6502.40
49052;DHT22;34866;48.670;18.260;2023-05-10T01:19:19;230.60;6502.40
49052;DHT22;34866;48.670;18.260;2023-05-10T01:34:20;230.70;6502.40
49052;DHT22;34866;48.670;18.260;2023-05-10T01:37:20;230.70;6502.40
49052;DHT22;34866;48.670;18.260;2023-05-10T01:39:51;205.50;6502.40
49052;DHT22;34866;48.670;18.260;2023-05-10T01:42:23;205.30;6502.40
49052;DHT22;34866;48.670;18.260;2023-05-10T01:47:41;180.00;6502.40
49052;DHT22;34866;48.670;18.260;2023-05-10T01:50:15;179.80;6502.40
49052;DHT22;34866;48.670;18.260;2023-05-10T01:52:49;179.50;6502.40
49052;DHT22;34866;48.670;18.260;2023-05-10T01:55:18;179.80;6502.40
49052;DHT22;34866;48.670;18.260;2023-05-10T01:57:44;179.90;6502.40
49052;DHT22;34866;48.670;18.260;2023-05-10T02:00:14;179.80;6502.40
49052;DHT22;34866;48.670;18.260;2023-05-10T02:02:44;179.80;6502.40
49052;DHT22;34866;48.670;18.260;2023-05-10T02:05:13;179.70;6502.40
49052;DHT22;34866;48.670;18.260;2023-05-10T02:07:39;179.60;6502.40
49052;DHT22;34866;48.670;18.260;2023-05-10T02:10:11;179.40;6502.40
49052;DHT22;34866;48.670;18.260;2023-05-10T02:12:43;179.50;6502.40
49052;DHT22;34866;48.670;18.260;2023-05-10T02:15:11;179.40;6502.40
49052;DHT22;34866;48.670;18.260;2023-05-10T02:17:37;179.50;6502.40
49052;DHT22;34866;48.670;18.260;2023-05-10T02:20:06;179.60;6502.40
49052;DHT22;34866;48.670;18.260;2023-05-10T02:22:34;179.40;6502.40
49052;DHT22;34866;48.670;18.260;2023-05-10T02:25:01;179.30;128.00
49052;DHT22;34866;48.670;18.260;2023-05-10T02:27:29;154.40;128.00
49052;DHT22;34866;48.670;18.260;2023-05-10T02:29:58;154.30;128.00
49052;DHT22;34866;48.670;18.260;2023-05-10T02:32:26;154.30;128.00
49052;DHT22;34866;48.670;18.260;2023-05-10T02:34:52;154.40;128.00
49052;DHT22;34866;48.670;18.260;2023-05-10T02:37:21;154.00;384.00
49052;DHT22;34866;48.670;18.260;2023-05-10T02:39:52;153.80;768.00
49052;DHT22;34866;48.670;18.260;2023-05-10T02:42:22;153.70;1049.60
49052;DHT22;34866;48.670;18.260;2023-05-10T02:44:54;128.90;1510.40
49052;DHT22;34866;48.670;18.260;2023-05-10T02:47:20;153.80;1561.60
49052;DHT22;34866;48.670;18.260;2023-05-10T02:49:47;153.70;1587.20
49052;DHT22;34866;48.670;18.260;2023-05-10T02:52:16;128.70;1382.40
49052;DHT22;34866;48.670;18.260;2023-05-10T02:54:46;128.40;1817.60
49052;DHT22;34866;48.670;18.260;2023-05-10T02:57:25;128.50;1587.20
49052;DHT22;34866;48.670;18.260;2023-05-10T02:59:53;128.50;2150.40
49052;DHT22;34866;48.670;18.260;2023-05-10T03:02:19;128.60;2022.40
49052;DHT22;34866;48.670;18.260;2023-05-10T03:04:45;128.30;1945.60
49052;DHT22;34866;48.670;18.260;2023-05-10T03:07:11;128.40;2252.80
49052;DHT22;34866;48.670;18.260;2023-05-10T03:09:37;128.40;2227.20
49052;DHT22;34866;48.670;18.260;2023-05-10T03:12:31;128.60;2124.80
49052;DHT22;34866;48.670;18.260;2023-05-10T03:15:22;128.60;1945.60
49052;DHT22;34866;48.670;18.260;2023-05-10T03:18:01;128.40;2252.80
49052;DHT22;34866;48.670;18.260;2023-05-10T03:20:35;128.60;2252.80
49052;DHT22;34866;48.670;18.260;2023-05-10T03:23:12;128.60;2252.80
49052;DHT22;34866;48.670;18.260;2023-05-10T03:25:40;128.60;2252.80
49052;DHT22;34866;48.670;18.260;2023-05-10T03:28:06;128.90;2022.40
49052;DHT22;34866;48.670;18.260;2023-05-10T03:30:33;128.90;2073.60
49052;DHT22;34866;48.670;18.260;2023-05-10T03:33:04;153.60;1792.00
49052;DHT22;34866;48.670;18.260;2023-05-10T03:35:30;153.60;1843.20
49052;DHT22;34866;48.670;18.260;2023-05-10T03:37:56;153.60;2022.40
49052;DHT22;34866;48.670;18.260;2023-05-10T03:40:22;128.80;2252.80
49052;DHT22;34866;48.670;18.260;2023-05-10T03:42:54;128.50;2201.60
49052;DHT22;34866;48.670;18.260;2023-05-10T03:45:20;128.60;2252.80
49052;DHT22;34866;48.670;18.260;2023-05-10T03:47:49;128.70;2252.80
49052;DHT22;34866;48.670;18.260;2023-05-10T03:50:18;128.50;2252.80
49052;DHT22;34866;48.670;18.260;2023-05-10T03:52:44;128.50;2252.80
49052;DHT22;34866;48.670;18.260;2023-05-10T03:55:13;128.60;2252.80
49052;DHT22;34866;48.670;18.260;2023-05-10T03:57:39;128.50;2227.20
49052;DHT22;34866;48.670;18.260;2023-05-10T04:00:11;128.40;2252.80
49052;DHT22;34866;48.670;18.260;2023-05-10T04:02:37;128.50;2252.80
49052;DHT22;34866;48.670;18.260;2023-05-10T04:05:03;128.50;2252.80
49052;DHT22;34866;48.670;18.260;2023-05-10T04:07:48;128.50;2252.80
49052;DHT22;34866;48.670;18.260;2023-05-10T04:10:15;128.50;2252.80
49052;DHT22;34866;48.670;18.260;2023-05-10T04:12:41;128.70;2252.80
49052;DHT22;34866;48.670;18.260;2023-05-10T04:15:12;128.80;2252.80
49052;DHT22;34866;48.670;18.260;2023-05-10T04:17:38;128.80;2252.80
49052;DHT22;34866;48.670;18.260;2023-05-10T04:20:06;128.90;2150.40
49052;DHT22;34866;48.670;18.260;2023-05-10T04:22:32;128.90;2252.80
49052;DHT22;34866;48.670;18.260;2023-05-10T04:24:58;153.70;2099.20
49052;DHT22;34866;48.670;18.260;2023-05-10T04:27:23;153.80;1920.00
49052;DHT22;34866;48.670;18.260;2023-05-10T04:29:49;153.80;2201.60
49052;DHT22;34866;48.670;18.260;2023-05-10T04:32:15;153.90;2227.20
49052;DHT22;34866;48.670;18.260;2023-05-10T04:34:43;154.10;2124.80
49052;DHT22;34866;48.670;18.260;2023-05-10T04:37:08;154.30;1689.60
49052;DHT22;34866;48.670;18.260;2023-05-10T04:39:34;154.40;1664.00
49052;DHT22;34866;48.670;18.260;2023-05-10T04:42:02;179.20;1612.80
49052;DHT22;34866;48.670;18.260;2023-05-10T04:44:28;179.30;1484.80
49052;DHT22;34866;48.670;18.260;2023-05-10T04:46:54;179.50;1510.40
49052;DHT22;34866;48.670;18.260;2023-05-10T04:49:20;179.70;1510.40
49052;DHT22;34866;48.670;18.260;2023-05-10T04:51:46;179.90;1561.60
49052;DHT22;34866;48.670;18.260;2023-05-10T04:54:12;204.80;844.80
49052;DHT22;34866;48.670;18.260;2023-05-10T04:56:37;205.00;563.20
49052;DHT22;34866;48.670;18.260;2023-05-10T04:59:03;205.20;486.40
49052;DHT22;34866;48.670;18.260;2023-05-10T05:01:29;205.40;460.80
49052;DHT22;34866;48.670;18.260;2023-05-10T05:03:54;205.70;537.60
49052;DHT22;34866;48.670;18.260;2023-05-10T05:06:20;230.50;537.60
49052;DHT22;34866;48.670;18.260;2023-05-10T05:08:51;230.80;384.00
49052;DHT22;34866;48.670;18.260;2023-05-10T05:11:17;231.10;128.00
49052;DHT22;34866;48.670;18.260;2023-05-10T05:13:44;231.30;6502.40
49052;DHT22;34866;48.670;18.260;2023-05-10T05:16:10;256.30;6502.40
49052;DHT22;34866;48.670;18.260;2023-05-10T05:18:42;256.50;128.00
49052;DHT22;34866;48.670;18.260;2023-05-10T05:21:16;256.90;6502.40
49052;DHT22;34866;48.670;18.260;2023-05-10T05:23:42;282.30;6528.00
49052;DHT22;34866;48.670;18.260;2023-05-10T05:26:09;307.30;128.00
49052;DHT22;34866;48.670;18.260;2023-05-10T05:28:41;307.50;128.00
49052;DHT22;34866;48.670;18.260;2023-05-10T05:31:07;333.70;128.00
49052;DHT22;34866;48.670;18.260;2023-05-10T05:33:34;359.10;128.00
49052;DHT22;34866;48.670;18.260;2023-05-10T05:36:04;333.40;128.00
49052;DHT22;34866;48.670;18.260;2023-05-10T05:38:30;333.10;128.00
49052;DHT22;34866;48.670;18.260;2023-05-10T05:40:56;333.00;128.00
49052;DHT22;34866;48.670;18.260;2023-05-10T05:43:21;332.80;128.00
49052;DHT22;34866;48.670;18.260;2023-05-10T05:45:47;332.80;128.00
49052;DHT22;34866;48.670;18.260;2023-05-10T05:48:13;333.00;128.00
49052;DHT22;34866;48.670;18.260;2023-05-10T05:50:38;333.10;128.00
49052;DHT22;34866;48.670;18.260;2023-05-10T05:53:04;333.40;128.00
49052;DHT22;34866;48.670;18.260;2023-05-10T05:55:30;333.40;128.00
49052;DHT22;34866;48.670;18.260;2023-05-10T05:58:11;333.50;128.00
49052;DHT22;34866;48.670;18.260;2023-05-10T06:00:37;333.60;128.00
49052;DHT22;34866;48.670;18.260;2023-05-10T06:03:03;333.70;128.00
49052;DHT22;34866;48.670;18.260;2023-05-10T06:05:28;358.40;128.00
49052;DHT22;34866;48.670;18.260;2023-05-10T06:07:54;358.60;128.00
49052;DHT22;34866;48.670;18.260;2023-05-10T06:10:20;358.50;128.00
49052;DHT22;34866;48.670;18.260;2023-05-10T06:12:45;358.70;128.00
49052;DHT22;34866;48.670;18.260;2023-05-10T06:15:11;358.80;128.00
49052;DHT22;34866;48.670;18.260;2023-05-10T06:17:37;359.00;128.00
49052;DHT22;34866;48.670;18.260;2023-05-10T06:20:07;359.00;128.00
49052;DHT22;34866;48.670;18.260;2023-05-10T06:22:34;358.80;128.00
49052;DHT22;34866;48.670;18.260;2023-05-10T06:25:12;358.70;128.00
49052;DHT22;34866;48.670;18.260;2023-05-10T06:27:41;359.10;128.00
49052;DHT22;34866;48.670;18.260;2023-05-10T06:30:09;359.20;128.00
49052;DHT22;34866;48.670;18.260;2023-05-10T06:32:38;359.30;128.00
49052;DHT22;34866;48.670;18.260;2023-05-10T06:35:07;359.30;128.00
49052;DHT22;34866;48.670;18.260;2023-05-10T06:37:37;359.30;128.00
49052;DHT22;34866;48.670;18.260;2023-05-10T06:40:03;359.20;128.00
49052;DHT22;34866;48.670;18.260;2023-05-10T06:42:29;359.00;128.00
49052;DHT22;34866;48.670;18.260;2023-05-10T06:44:55;358.90;128.00
49052;DHT22;34866;48.670;18.260;2023-05-10T06:47:21;358.90;128.00
49052;DHT22;34866;48.670;18.260;2023-05-10T06:49:47;358.70;128.00
49052;DHT22;34866;48.670;18.260;2023-05-10T06:52:37;358.70;128.00
49052;DHT22;34866;48.670;18.260;2023-05-10T06:55:08;358.60;128.00
49052;DHT22;34866;48.670;18.260;2023-05-10T06:57:34;358.40;128.00
49052;DHT22;34866;48.670;18.260;2023-05-10T07:00:02;358.40;128.00
49052;DHT22;34866;48.670;18.260;2023-05-10T07:02:31;358.40;128.00
49052;DHT22;34866;48.670;18.260;2023-05-10T07:04:57;358.50;128.00
49052;DHT22;34866;48.670;18.260;2023-05-10T07:07:23;358.50;128.00
49052;DHT22;34866;48.670;18.260;2023-05-10T07:09:50;358.70;128.00
49052;DHT22;34866;48.670;18.260;2023-05-10T07:12:16;358.60;128.00
49052;DHT22;34866;48.670;18.260;2023-05-10T07:14:42;358.70;128.00
49052;DHT22;34866;48.670;18.260;2023-05-10T07:17:10;358.70;128.00
49052;DHT22;34866;48.670;18.260;2023-05-10T07:19:36;359.30;128.00
49052;DHT22;34866;48.670;18.260;2023-05-10T07:22:05;384.50;128.00
49052;DHT22;34866;48.670;18.260;2023-05-10T07:24:31;409.60;128.00
49052;DHT22;34866;48.670;18.260;2023-05-10T07:27:19;409.60;128.00
49052;DHT22;34866;48.670;18.260;2023-05-10T07:29:46;409.70;128.00
49052;DHT22;34866;48.670;18.260;2023-05-10T07:32:11;384.90;128.00
49052;DHT22;34866;48.670;18.260;2023-05-10T07:34:38;410.00;128.00
49052;DHT22;34866;48.670;18.260;2023-05-10T07:37:05;409.80;128.00
49052;DHT22;34866;48.670;18.260;2023-05-10T07:39:36;409.80;128.00
49052;DHT22;34866;48.670;18.260;2023-05-10T07:42:02;409.70;128.00
49052;DHT22;34866;48.670;18.260;2023-05-10T07:44:34;409.80;128.00
49052;DHT22;34866;48.670;18.260;2023-05-10T07:47:24;410.00;128.00
49052;DHT22;34866;48.670;18.260;2023-05-10T07:49:52;384.70;128.00
49052;DHT22;34866;48.670;18.260;2023-05-10T07:52:19;409.80;128.00
49052;DHT22;34866;48.670;18.260;2023-05-10T07:54:44;409.70;128.00
49052;DHT22;34866;48.670;18.260;2023-05-10T07:57:10;409.90;128.00
49052;DHT22;34866;48.670;18.260;2023-05-10T07:59:48;410.00;128.00
49052;DHT22;34866;48.670;18.260;2023-05-10T08:02:17;410.30;128.00
49052;DHT22;34866;48.670;18.260;2023-05-10T08:04:43;409.80;128.00
49052;DHT22;34866;48.670;18.260;2023-05-10T08:07:09;410.00;128.00
49052;DHT22;34866;48.670;18.260;2023-05-10T08:09:35;410.00;128.00
49052;DHT22;34866;48.670;18.260;2023-05-10T08:12:01;410.10;128.00
49052;DHT22;34866;48.670;18.260;2023-05-10T08:14:28;435.20;128.00
49052;DHT22;34866;48.670;18.260;2023-05-10T08:16:54;435.20;128.00
49052;DHT22;34866;48.670;18.260;2023-05-10T08:19:22;410.00;128.00
49052;DHT22;34866;48.670;18.260;2023-05-10T08:21:48;410.00;128.00
49052;DHT22;34866;48.670;18.260;2023-05-10T08:24:14;409.80;128.00
49052;DHT22;34866;48.670;18.260;2023-05-10T08:26:39;410.50;128.00
49052;DHT22;34866;48.670;18.260;2023-05-10T08:29:05;410.00;128.00
49052;DHT22;34866;48.670;18.260;2023-05-10T08:31:31;384.90;128.00
49052;DHT22;34866;48.670;18.260;2023-05-10T08:33:56;409.60;128.00
49052;DHT22;34866;48.670;18.260;2023-05-10T08:36:22;409.70;128.00
49052;DHT22;34866;48.670;18.260;2023-05-10T08:38:53;409.70;128.00
49052;DHT22;34866;48.670;18.260;2023-05-10T08:41:25;410.30;128.00
49052;DHT22;34866;48.670;18.260;2023-05-10T08:43:54;410.10;128.00
49052;DHT22;34866;48.670;18.260;2023-05-10T08:46:22;435.20;128.00
49052;DHT22;34866;48.670;18.260;2023-05-10T08:48:50;410.30;128.00
49052;DHT22;34866;48.670;18.260;2023-05-10T08:51:27;409.70;128.00
49052;DHT22;34866;48.670;18.260;2023-05-10T08:53:55;409.80;128.00
49052;DHT22;34866;48.670;18.260;2023-05-10T08:56:21;410.00;128.00
49052;DHT22;34866;48.670;18.260;2023-05-10T08:59:07;435.40;128.00
49052;DHT22;34866;48.670;18.260;2023-05-10T09:01:55;410.00;128.00
49052;DHT22;34866;48.670;18.260;2023-05-10T09:04:21;435.30;128.00
49052;DHT22;34866;48.670;18.260;2023-05-10T09:06:47;435.40;128.00
49052;DHT22;34866;48.670;18.260;2023-05-10T09:09:34;435.60;128.00
49052;DHT22;34866;48.670;18.260;2023-05-10T09:12:00;435.90;128.00
49052;DHT22;34866;48.670;18.260;2023-05-10T09:14:26;435.90;128.00
49052;DHT22;34866;48.670;18.260;2023-05-10T09:16:53;436.10;128.00
49052;DHT22;34866;48.670;18.260;2023-05-10T09:19:27;436.10;128.00
49052;DHT22;34866;48.670;18.260;2023-05-10T09:21:59;461.00;128.00
49052;DHT22;34866;48.670;18.260;2023-05-10T09:24:27;435.70;128.00
49052;DHT22;34866;48.670;18.260;2023-05-10T09:26:52;461.00;128.00
49052;DHT22;34866;48.670;18.260;2023-05-10T09:29:18;461.20;128.00
49052;DHT22;34866;48.670;18.260;2023-05-10T09:31:50;461.10;128.00
49052;DHT22;34866;48.670;18.260;2023-05-10T09:34:28;435.80;128.00
49052;DHT22;34866;48.670;18.260;2023-05-10T09:36:56;435.50;128.00
49052;DHT22;34866;48.670;18.260;2023-05-10T09:39:55;436.00;128.00
49052;DHT22;34866;48.670;18.260;2023-05-10T09:42:21;461.10;128.00
49052;DHT22;34866;48.670;18.260;2023-05-10T09:44:49;461.40;128.00
49052;DHT22;34866;48.670;18.260;2023-05-10T09:47:18;461.70;128.00
49052;DHT22;34866;48.670;18.260;2023-05-10T09:49:49;461.40;128.00
49052;DHT22;34866;48.670;18.260;2023-05-10T09:52:14;461.40;128.00
49052;DHT22;34866;48.670;18.260;2023-05-10T09:54:52;461.30;128.00
49052;DHT22;34866;48.670;18.260;2023-05-10T09:57:23;461.50;128.00
49052;DHT22;34866;48.670;18.260;2023-05-10T09:59:49;486.50;128.00
49052;DHT22;34866;48.670;18.260;2023-05-10T10:02:18;461.50;588.80
49052;DHT22;34866;48.670;18.260;2023-05-10T10:05:11;486.70;128.00
49052;DHT22;34866;48.670;18.260;2023-05-10T10:07:43;486.60;128.00
49052;DHT22;34866;48.670;18.260;2023-05-10T10:10:09;486.40;128.00
49052;DHT22;34866;48.670;18.260;2023-05-10T10:12:39;461.60;128.00
49052;DHT22;34866;48.670;18.260;2023-05-10T10:15:05;486.60;128.00
49052;DHT22;34866;48.670;18.260;2023-05-10T10:17:32;486.40;128.00
49052;DHT22;34866;48.670;18.260;2023-05-10T10:20:02;461.60;128.00
49052;DHT22;34866;48.670;18.260;2023-05-10T10:22:28;486.70;128.00
49052;DHT22;34866;48.670;18.260;2023-05-10T10:24:55;486.50;128.00
49052;DHT22;34866;48.670;18.260;2023-05-10T10:30:41;461.00;128.00
49052;DHT22;34866;48.670;18.260;2023-05-10T10:36:12;461.30;128.00
49052;DHT22;34866;48.670;18.260;2023-05-10T10:38:57;461.70;128.00
49052;DHT22;34866;48.670;18.260;2023-05-10T10:44:35;461.70;128.00
49052;DHT22;34866;48.670;18.260;2023-05-10T10:52:36;486.50;128.00
49052;DHT22;34866;48.670;18.260;2023-05-10T10:58:33;460.80;128.00
49052;DHT22;34866;48.670;18.260;2023-05-10T11:01:18;461.50;128.00
49052;DHT22;34866;48.670;18.260;2023-05-10T11:07:15;461.30;128.00
49052;DHT22;34866;48.670;18.260;2023-05-10T11:09:41;436.10;128.00
49052;DHT22;34866;48.670;18.260;2023-05-10T11:12:10;461.20;128.00
49052;DHT22;34866;48.670;18.260;2023-05-10T11:14:35;461.40;128.00
49052;DHT22;34866;48.670;18.260;2023-05-10T11:17:01;486.60;128.00
49052;DHT22;34866;48.670;18.260;2023-05-10T11:20:08;461.70;128.00
49052;DHT22;34866;48.670;18.260;2023-05-10T11:22:54;461.60;128.00
49052;DHT22;34866;48.670;18.260;2023-05-10T11:25:43;486.90;128.00
49052;DHT22;34866;48.670;18.260;2023-05-10T11:28:11;487.20;128.00
49052;DHT22;34866;48.670;18.260;2023-05-10T11:30:41;487.10;128.00
49052;DHT22;34866;48.670;18.260;2023-05-10T11:33:09;486.50;486.40
49052;DHT22;34866;48.670;18.260;2023-05-10T11:35:39;461.70;128.00
49052;DHT22;34866;48.670;18.260;2023-05-10T11:38:17;461.50;128.00
49052;DHT22;34866;48.670;18.260;2023-05-10T11:40:43;486.90;128.00
49052;DHT22;34866;48.670;18.260;2023-05-10T11:43:09;486.60;128.00
49052;DHT22;34866;48.670;18.260;2023-05-10T11:45:36;487.20;128.00
49052;DHT22;34866;48.670;18.260;2023-05-10T11:48:05;487.20;128.00
49052;DHT22;34866;48.670;18.260;2023-05-10T11:50:31;486.90;128.00
49052;DHT22;34866;48.670;18.260;2023-05-10T11:52:58;487.10;128.00
49052;DHT22;34866;48.670;18.260;2023-05-10T11:55:43;512.10;358.40
49052;DHT22;34866;48.670;18.260;2023-05-10T11:58:10;487.10;486.40
49052;DHT22;34866;48.670;18.260;2023-05-10T12:00:39;487.00;640.00
49052;DHT22;34866;48.670;18.260;2023-05-10T12:03:06;512.00;128.00
49052;DHT22;34866;48.670;18.260;2023-05-10T12:05:32;461.70;128.00
49052;DHT22;34866;48.670;18.260;2023-05-10T12:08:19;461.10;128.00
49052;DHT22;34866;48.670;18.260;2023-05-10T12:10:45;461.60;128.00
49052;DHT22;34866;48.670;18.260;2023-05-10T12:13:14;486.40;128.00
49052;DHT22;34866;48.670;18.260;2023-05-10T12:15:42;486.90;128.00
49052;DHT22;34866;48.670;18.260;2023-05-10T12:18:27;487.10;128.00
49052;DHT22;34866;48.670;18.260;2023-05-10T12:20:54;487.30;128.00
49052;DHT22;34866;48.670;18.260;2023-05-10T12:23:20;512.30;128.00
49052;DHT22;34866;48.670;18.260;2023-05-10T12:25:46;512.00;512.00
49052;DHT22;34866;48.670;18.260;2023-05-10T12:28:33;487.30;614.40
49052;DHT22;34866;48.670;18.260;2023-05-10T12:31:02;512.00;307.20
49052;DHT22;34866;48.670;18.260;2023-05-10T12:33:38;512.20;614.40
49052;DHT22;34866;48.670;18.260;2023-05-10T12:36:10;512.00;409.60
49052;DHT22;34866;48.670;18.260;2023-05-10T12:38:37;487.30;230.40
49052;DHT22;34866;48.670;18.260;2023-05-10T12:41:26;512.00;307.20
49052;DHT22;34866;48.670;18.260;2023-05-10T12:43:51;512.10;256.00
49052;DHT22;34866;48.670;18.260;2023-05-10T12:46:17;512.20;128.00
49052;DHT22;34866;48.670;18.260;2023-05-10T12:48:44;512.10;486.40
49052;DHT22;34866;48.670;18.260;2023-05-10T12:51:20;512.40;307.20
49052;DHT22;34866;48.670;18.260;2023-05-10T12:53:47;512.40;358.40
49052;DHT22;34866;48.670;18.260;2023-05-10T12:56:13;512.50;281.60
49052;DHT22;34866;48.670;18.260;2023-05-10T12:58:39;512.40;563.20
49052;DHT22;34866;48.670;18.260;2023-05-10T13:01:10;512.50;204.80
49052;DHT22;34866;48.670;18.260;2023-05-10T13:03:36;512.30;409.60
49052;DHT22;34866;48.670;18.260;2023-05-10T13:06:02;512.10;281.60
49052;DHT22;34866;48.670;18.260;2023-05-10T13:08:32;512.80;332.80
49052;DHT22;34866;48.670;18.260;2023-05-10T13:11:02;512.80;128.00
49052;DHT22;34866;48.670;18.260;2023-05-10T13:13:28;512.80;128.00
49052;DHT22;34866;48.670;18.260;2023-05-10T13:15:54;512.40;153.60
49052;DHT22;34866;48.670;18.260;2023-05-10T13:18:20;487.30;128.00
49052;DHT22;34866;48.670;18.260;2023-05-10T13:20:45;512.30;128.00
49052;DHT22;34866;48.670;18.260;2023-05-10T13:23:11;512.40;256.00
49052;DHT22;34866;48.670;18.260;2023-05-10T13:25:37;512.20;256.00
49052;DHT22;34866;48.670;18.260;2023-05-10T13:28:05;512.30;358.40
49052;DHT22;34866;48.670;18.260;2023-05-10T13:30:31;512.60;128.00
49052;DHT22;34866;48.670;18.260;2023-05-10T13:32:58;512.90;256.00
49052;DHT22;34866;48.670;18.260;2023-05-10T13:35:36;512.00;128.00
49052;DHT22;34866;48.670;18.260;2023-05-10T13:38:03;512.10;128.00
49052;DHT22;34866;48.670;18.260;2023-05-10T13:40:28;486.90;128.00
49052;DHT22;34866;48.670;18.260;2023-05-10T13:42:55;487.30;128.00
49052;DHT22;34866;48.670;18.260;2023-05-10T13:45:25;487.30;128.00
49052;DHT22;34866;48.670;18.260;2023-05-10T13:47:51;486.90;128.00
49052;DHT22;34866;48.670;18.260;2023-05-10T13:50:42;487.10;128.00
49052;DHT22;34866;48.670;18.260;2023-05-10T13:53:31;486.70;128.00
49052;DHT22;34866;48.670;18.260;2023-05-10T13:55:57;461.70;128.00
49052;DHT22;34866;48.670;18.260;2023-05-10T13:58:43;487.00;307.20
49052;DHT22;34866;48.670;18.260;2023-05-10T14:01:08;461.50;128.00
49052;DHT22;34866;48.670;18.260;2023-05-10T14:03:39;486.40;128.00
49052;DHT22;34866;48.670;18.260;2023-05-10T14:06:06;461.70;128.00
49052;DHT22;34866;48.670;18.260;2023-05-10T14:08:35;486.40;128.00
49052;DHT22;34866;48.670;18.260;2023-05-10T14:11:07;461.60;128.00
49052;DHT22;34866;48.670;18.260;2023-05-10T14:13:32;461.70;128.00
49052;DHT22;34866;48.670;18.260;2023-05-10T14:16:20;486.50;179.20
49052;DHT22;34866;48.670;18.260;2023-05-10T14:18:48;486.60;128.00
49052;DHT22;34866;48.670;18.260;2023-05-10T14:21:39;461.30;128.00
49052;DHT22;34866;48.670;18.260;2023-05-10T14:24:05;461.30;128.00
49052;DHT22;34866;48.670;18.260;2023-05-10T14:26:34;461.40;128.00
49052;DHT22;34866;48.670;18.260;2023-05-10T14:29:05;461.40;128.00
49052;DHT22;34866;48.670;18.260;2023-05-10T14:31:31;461.50;128.00
49052;DHT22;34866;48.670;18.260;2023-05-10T14:33:57;461.40;128.00
49052;DHT22;34866;48.670;18.260;2023-05-10T14:36:23;461.60;128.00
49052;DHT22;34866;48.670;18.260;2023-05-10T14:38:49;461.40;128.00
49052;DHT22;34866;48.670;18.260;2023-05-10T14:41:16;461.50;128.00
49052;DHT22;34866;48.670;18.260;2023-05-10T14:43:43;461.70;128.00
49052;DHT22;34866;48.670;18.260;2023-05-10T14:46:08;461.50;128.00
49052;DHT22;34866;48.670;18.260;2023-05-10T14:48:34;461.30;128.00
49052;DHT22;34866;48.670;18.260;2023-05-10T14:51:00;461.20;128.00
49052;DHT22;34866;48.670;18.260;2023-05-10T14:53:26;461.10;128.00
49052;DHT22;34866;48.670;18.260;2023-05-10T14:55:53;461.00;128.00
49052;DHT22;34866;48.670;18.260;2023-05-10T14:58:18;460.90;128.00
49052;DHT22;34866;48.670;18.260;2023-05-10T15:00:46;460.90;128.00
49052;DHT22;34866;48.670;18.260;2023-05-10T15:03:16;460.80;128.00
49052;DHT22;34866;48.670;18.260;2023-05-10T15:05:42;460.90;128.00
49052;DHT22;34866;48.670;18.260;2023-05-10T15:08:08;461.10;179.20
49052;DHT22;34866;48.670;18.260;2023-05-10T15:10:35;461.20;128.00
49052;DHT22;34866;48.670;18.260;2023-05-10T15:13:07;461.20;384.00
49052;DHT22;34866;48.670;18.260;2023-05-10T15:15:33;460.90;128.00
49052;DHT22;34866;48.670;18.260;2023-05-10T15:18:00;461.10;153.60
49052;DHT22;34866;48.670;18.260;2023-05-10T15:20:26;461.10;307.20
49052;DHT22;34866;48.670;18.260;2023-05-10T15:22:51;460.90;128.00
49052;DHT22;34866;48.670;18.260;2023-05-10T15:25:17;461.00;179.20
49052;DHT22;34866;48.670;18.260;2023-05-10T15:27:43;460.90;128.00
49052;DHT22;34866;48.670;18.260;2023-05-10T15:30:09;460.90;128.00
49052;DHT22;34866;48.670;18.260;2023-05-10T15:32:35;460.80;128.00
49052;DHT22;34866;48.670;18.260;2023-05-10T15:35:03;460.80;153.60